Aérodrome :
LOGIN :

S'inscrire | Disclaimer

   EN    FR    IT 

 










Légende :    VFR   VFR Marginal   IFR   IFR Intensif   IFR Très Intensif
Visi : 
Plafond : 
>= 8 km
>= 3000ft
5 à 8 km
1000 à 3000 ft
1500m à 5 km
500 à 1000 ft
800 à 1500m
200 à 500 ft
< 800m
< 200 ft
Symboles :   Orages  Brouillard  Fortes neiges  Fortes précipitations  Vent > 20 kt
SIGMETs :   Divers  Orages  Givrage  Turbulence  Onde Orograph.  Cendres Volcan.






- Altitude de l'aérodrome : 79 ft
- Code IATA : NSY


LICZ - Sigonella (Mil) Catania

DERNIER METAR :
  • 240555Z 03004KT 8000 BKN070 12/08 Q1012

METARs EXPIRÉS :
  • 240455Z 31007KT 8000 BKN100 10/10 Q1012
  • 240355Z 30005KT 8000 SCT020 SCT100 10/09 Q1012 RMK BKN VIS MIN 8000 WIND THR28 30002KT WIND THR10 29005KT A2990 BLU
  • 240255Z 29007KT 9999 FEW020 11/09 Q1011
  • 240155Z 28009KT CAVOK 12/08 Q1012 RMK SKC VIS MIN 9999 WIND THR28 26006KT WIND THR10 27008KT A2989 BLU
  • 240055Z 28007KT CAVOK 12/07 Q1012 RMK SKC VIS MIN 9999 WIND THR28 26005KT WIND THR10 27007KT A2990 BLU

TAF TAF LICZ
Valide du 24 à 06h jusqu'au 25 à 06h UTC


240500Z 2406/2506 28012KT 9999 SCT030 BKN100
BECMG 2423/2501 CAVOK



MET'MAP, la Météo Aéronautique d'un coup d'oeil ! - Copyright ORBIFLY Décembre 2007 - Disclaimer

ORBIFLY MET'MAP TEAM :

Programmation & Développement : Alexandra Zaïnal
Sur une idée originale de : Baudouin d'Aumeries
Soutien technique & logistique : Manuel Goepfert
Assistance : Marc-Olivier Méhu




SOURCES & CREDITS :

   NOAA